Accueil
METAR-TAF:

METAR-TAF

Aéroports :

Aéroport de Londres-Gatwick

Londres-Gatwick, Angleterre

latitude: 51-09N, longitude: 000-11W, altitude: 62 m

Observation

Le bulletin a été fait il y a 18 minutes, à 22:50 UTC
Vent 12 kt de ouest/sud-ouest
Température 3°C
Humidité 81%
Pression 1003 hPa
Visibilité 10 km ou plus
pas de nuages en-dessous de 1500 mètres et pas de cumulonimbus.

METAR: EGKK 282250Z 25012KT CAVOK 03/00 Q1003

Heure: 23:08 (23:08 UTC)

Prévision

Le bulletin a été fait il y a 6 heures et 10 minutes, à 16:58 UTC
Prévision valable du 28 à 18 UTC au 29 à 24 UTC
Vent 11 kt de ouest
Visibilité 10 km ou plus
Quelques nuages à une hauteur de 3000 ft
Probabilité 30%
du 29 à 22 UTC au 29 à 24 UTC
Nuages fragmentés à une hauteur de 1200 ft

TAF: EGKK 281658Z 2818/2924 26011KT 9999 FEW030 PROB30 2922/2924 BKN012

Observations et prévisions météorologiques de plus de 4000 aéroports (messages METAR et TAF).

Les stations disponibles sont représentées par des disques jaunes et rouges sur la carte.

Passer la souris dessus pour voir le nom de la station.

Cliquer dessus pour voir les observations et prévisions météorologiques.

Pour changer de carte: cliquez sur les boutons verts avec une croix noire pour zoomer, sur le bouton vert avec un tiret pour effectuer un zoom arrière, ou sur les flèches vertes pour les cartes adjacentes.


METAR-TAF: